createdAt,value
2022-08-05T00:00:11.269Z,0
2022-08-05T00:01:27.581Z,0
2022-08-05T00:02:43.864Z,0
2022-08-05T00:04:00.167Z,0
2022-08-05T00:05:16.446Z,0
2022-08-05T00:06:32.757Z,0
2022-08-05T00:07:49.040Z,0
2022-08-05T00:09:05.343Z,0
2022-08-05T00:10:21.629Z,0
2022-08-05T00:11:37.919Z,0
2022-08-05T00:12:53.235Z,0
2022-08-05T00:14:09.539Z,0
2022-08-05T00:15:25.818Z,0
2022-08-05T00:16:42.110Z,0
2022-08-05T00:17:58.419Z,0
2022-08-05T00:19:13.736Z,0
2022-08-05T00:20:30.028Z,0
2022-08-05T00:21:46.309Z,0
2022-08-05T00:23:02.620Z,0
2022-08-05T00:24:18.897Z,0
2022-08-05T00:25:35.196Z,0
2022-08-05T00:26:51.498Z,0
2022-08-05T00:29:24.071Z,0
2022-08-05T00:30:40.377Z,0
2022-08-05T00:31:56.667Z,0
2022-08-05T00:33:12.962Z,0
2022-08-05T00:34:29.260Z,0
2022-08-05T00:37:00.872Z,0
2022-08-05T00:38:17.152Z,0
2022-08-05T00:39:33.449Z,0
2022-08-05T00:40:49.754Z,0
2022-08-05T00:42:06.031Z,0
2022-08-05T00:43:22.335Z,0
2022-08-05T00:44:38.632Z,0
2022-08-05T00:45:54.927Z,0
2022-08-05T00:47:11.221Z,0
2022-08-05T00:48:27.515Z,0
2022-08-05T00:49:43.801Z,0
2022-08-05T00:51:00.091Z,0
2022-08-05T00:52:15.416Z,0
2022-08-05T00:53:31.692Z,0
2022-08-05T00:54:47.998Z,0
2022-08-05T00:56:04.296Z,0
2022-08-05T00:57:20.592Z,0
2022-08-05T00:58:36.879Z,0
2022-08-05T00:59:53.176Z,0
2022-08-05T01:01:09.470Z,0
2022-08-05T01:02:25.755Z,0
2022-08-05T01:03:42.043Z,0
2022-08-05T01:04:58.353Z,0
2022-08-05T01:06:14.636Z,0
2022-08-05T01:07:30.939Z,0
2022-08-05T01:08:46.237Z,0
2022-08-05T01:10:02.547Z,0
2022-08-05T01:11:18.839Z,0
2022-08-05T01:12:35.130Z,0
2022-08-05T01:13:51.428Z,0
2022-08-05T01:15:07.718Z,0
2022-08-05T01:16:24.011Z,0
2022-08-05T01:17:40.298Z,0
2022-08-05T01:18:56.593Z,0
2022-08-05T01:20:12.884Z,0
2022-08-05T01:21:29.176Z,0
2022-08-05T01:22:45.487Z,0
2022-08-05T01:24:01.767Z,0
2022-08-05T01:25:17.081Z,0
2022-08-05T01:26:33.385Z,0
2022-08-05T01:27:49.663Z,0
2022-08-05T01:29:05.959Z,0
2022-08-05T01:30:22.260Z,0
2022-08-05T01:31:38.556Z,0
2022-08-05T01:32:54.849Z,0
2022-08-05T01:34:11.147Z,0
2022-08-05T01:35:27.433Z,0
2022-08-05T01:36:43.726Z,0
2022-08-05T01:38:00.017Z,0
2022-08-05T01:39:16.317Z,0
2022-08-05T01:40:32.620Z,0
2022-08-05T01:41:47.930Z,0
2022-08-05T01:43:04.220Z,0
2022-08-05T01:44:20.511Z,0
2022-08-05T01:45:36.809Z,0
2022-08-05T01:46:53.107Z,0
2022-08-05T01:48:09.387Z,0
2022-08-05T01:49:25.686Z,0
2022-08-05T01:50:41.982Z,0
2022-08-05T01:51:58.272Z,0
2022-08-05T01:53:14.562Z,0
2022-08-05T01:54:30.874Z,0
2022-08-05T01:55:47.163Z,0
2022-08-05T01:57:03.451Z,0
2022-08-05T01:58:18.758Z,0
2022-08-05T01:59:35.062Z,0
2022-08-05T02:00:51.347Z,0
2022-08-05T02:02:07.652Z,0
2022-08-05T02:03:23.939Z,0
2022-08-05T02:04:40.230Z,0
2022-08-05T02:05:56.525Z,0
2022-08-05T02:07:12.825Z,0
2022-08-05T02:08:29.121Z,0
2022-08-05T02:09:45.410Z,0
2022-08-05T02:11:01.697Z,0
2022-08-05T02:12:18.000Z,0
2022-08-05T02:13:34.282Z,0
2022-08-05T02:14:49.596Z,0
2022-08-05T02:16:05.884Z,0
2022-08-05T02:17:22.188Z,0
2022-08-05T02:18:38.493Z,0
2022-08-05T02:19:54.783Z,0
2022-08-05T02:21:11.066Z,0
2022-08-05T02:22:27.371Z,0
2022-08-05T02:23:43.651Z,0
2022-08-05T02:24:59.942Z,0
2022-08-05T02:26:16.238Z,0
2022-08-05T02:27:32.531Z,0
2022-08-05T02:28:48.830Z,0
2022-08-05T02:30:05.129Z,0
2022-08-05T02:31:20.432Z,0
2022-08-05T02:32:36.728Z,0
2022-08-05T02:33:53.016Z,0
2022-08-05T02:35:09.316Z,0
2022-08-05T02:36:25.606Z,0
2022-08-05T02:37:41.907Z,0
2022-08-05T02:38:58.207Z,0
2022-08-05T02:40:14.488Z,0
2022-08-05T02:41:30.791Z,0
2022-08-05T02:42:47.089Z,0
2022-08-05T02:44:03.367Z,0
2022-08-05T02:45:19.674Z,0
2022-08-05T02:46:35.967Z,0
2022-08-05T02:47:51.286Z,0
2022-08-05T02:49:07.571Z,0
2022-08-05T02:50:23.869Z,0
2022-08-05T02:51:40.154Z,0
2022-08-05T02:52:56.457Z,0
2022-08-05T02:54:12.746Z,0
2022-08-05T02:55:29.040Z,0
2022-08-05T02:56:45.338Z,0
2022-08-05T02:58:01.629Z,0
2022-08-05T02:59:17.914Z,0
2022-08-05T03:00:34.162Z,0
2022-08-05T03:01:50.461Z,0
2022-08-05T03:03:06.742Z,0
2022-08-05T03:04:22.025Z,0
2022-08-05T03:05:38.257Z,0
2022-08-05T03:06:54.540Z,0
2022-08-05T03:09:27.100Z,0
2022-08-05T03:10:43.329Z,0
2022-08-05T03:11:59.620Z,0
2022-08-05T03:13:15.882Z,0
2022-08-05T03:14:32.116Z,0
2022-08-05T03:15:48.361Z,0
2022-08-05T03:17:04.597Z,0
2022-08-05T03:18:20.851Z,0
2022-08-05T03:19:37.088Z,0
2022-08-05T03:20:52.344Z,0
2022-08-05T03:22:08.575Z,0
2022-08-05T03:23:24.818Z,0
2022-08-05T03:24:41.065Z,0
2022-08-05T03:25:57.299Z,0
2022-08-05T03:27:13.535Z,0
2022-08-05T03:28:29.786Z,0
2022-08-05T03:29:46.010Z,0
2022-08-05T03:31:02.255Z,0
2022-08-05T03:32:18.492Z,0
2022-08-05T03:33:34.736Z,0
2022-08-05T03:34:50.965Z,0
2022-08-05T03:36:07.213Z,0
2022-08-05T03:37:22.463Z,0
2022-08-05T03:38:38.721Z,0
2022-08-05T03:39:54.962Z,0
2022-08-05T03:41:11.201Z,0
2022-08-05T03:42:27.430Z,0
2022-08-05T03:43:43.679Z,5
2022-08-05T03:44:59.908Z,5
2022-08-05T03:46:16.157Z,5
2022-08-05T03:47:32.395Z,5
2022-08-05T03:48:48.621Z,5
2022-08-05T03:50:04.864Z,5
2022-08-05T03:51:21.104Z,5
2022-08-05T03:52:37.351Z,5
2022-08-05T03:53:52.599Z,11
2022-08-05T03:55:08.847Z,11
2022-08-05T03:56:25.091Z,11
2022-08-05T03:57:41.335Z,11
2022-08-05T03:58:57.556Z,11
2022-08-05T04:00:13.798Z,11
2022-08-05T04:01:30.048Z,16
2022-08-05T04:02:46.282Z,16
2022-08-05T04:04:02.518Z,16
2022-08-05T04:05:18.775Z,16
2022-08-05T04:06:35.014Z,16
2022-08-05T04:07:51.252Z,22
2022-08-05T04:09:07.478Z,22
2022-08-05T04:10:22.730Z,22
2022-08-05T04:11:38.980Z,22
2022-08-05T04:12:55.215Z,22
2022-08-05T04:14:11.464Z,22
2022-08-05T04:15:27.697Z,22
2022-08-05T04:19:16.420Z,22
2022-08-05T04:20:32.661Z,22
2022-08-05T04:21:48.893Z,28
2022-08-05T04:23:05.147Z,28
2022-08-05T04:24:21.373Z,28
2022-08-05T04:25:37.628Z,28
2022-08-05T04:26:52.875Z,28
2022-08-05T04:28:09.108Z,28
2022-08-05T04:29:25.359Z,28
2022-08-05T04:30:41.586Z,28
2022-08-05T04:31:57.833Z,28
2022-08-05T04:33:14.074Z,28
2022-08-05T04:34:29.329Z,33
2022-08-05T04:35:45.566Z,33
2022-08-05T04:37:01.818Z,33
2022-08-05T04:38:18.052Z,33
2022-08-05T04:39:34.289Z,39
2022-08-05T04:40:50.544Z,39
2022-08-05T04:42:06.765Z,39
2022-08-05T04:43:23.019Z,39
2022-08-05T04:44:39.246Z,45
2022-08-05T04:45:55.499Z,45
2022-08-05T04:47:11.744Z,39
2022-08-05T04:48:27.966Z,39
2022-08-05T04:49:44.207Z,39
2022-08-05T04:50:59.467Z,39
2022-08-05T04:52:15.709Z,39
2022-08-05T04:53:31.956Z,39
2022-08-05T04:54:48.190Z,39
2022-08-05T04:56:04.432Z,45
2022-08-05T04:57:20.677Z,45
2022-08-05T04:58:36.000Z,45
2022-08-05T04:59:53.157Z,45
2022-08-05T05:01:09.381Z,45
2022-08-05T05:02:25.629Z,45
2022-08-05T05:03:41.881Z,45
2022-08-05T05:04:58.108Z,50
2022-08-05T05:06:14.347Z,50
2022-08-05T05:07:29.603Z,50
2022-08-05T05:08:45.849Z,50
2022-08-05T05:10:02.078Z,50
2022-08-05T05:11:18.329Z,50
2022-08-05T05:12:34.570Z,50
2022-08-05T05:13:50.816Z,50
2022-08-05T05:15:07.051Z,50
2022-08-05T05:16:23.293Z,56
2022-08-05T05:17:39.521Z,56
2022-08-05T05:18:55.773Z,56
2022-08-05T05:20:12.016Z,61
2022-08-05T05:21:28.247Z,67
2022-08-05T05:22:44.488Z,67
2022-08-05T05:23:59.741Z,73
2022-08-05T05:25:15.988Z,90
2022-08-05T05:26:32.229Z,106
2022-08-05T05:27:48.464Z,112
2022-08-05T05:29:04.695Z,112
2022-08-05T05:30:20.937Z,112
2022-08-05T05:32:53.423Z,118
2022-08-05T05:34:09.663Z,123
2022-08-05T05:35:25.912Z,123
2022-08-05T05:36:42.146Z,123
2022-08-05T05:37:58.381Z,123
2022-08-05T05:39:14.623Z,129
2022-08-05T05:40:29.871Z,129
2022-08-05T05:41:46.128Z,129
2022-08-05T05:43:02.359Z,129
2022-08-05T05:44:18.589Z,129
2022-08-05T05:45:34.831Z,129
2022-08-05T05:46:51.075Z,135
2022-08-05T05:48:07.319Z,135
2022-08-05T05:49:23.559Z,135
2022-08-05T05:50:39.790Z,135
2022-08-05T05:51:56.038Z,140
2022-08-05T05:53:12.278Z,140
2022-08-05T05:54:28.528Z,146
2022-08-05T05:55:44.766Z,146
2022-08-05T05:57:00.010Z,146
2022-08-05T05:58:16.244Z,151
2022-08-05T05:59:32.000Z,151
2022-08-05T06:00:48.730Z,157
2022-08-05T06:02:04.970Z,157
2022-08-05T06:03:21.225Z,157
2022-08-05T06:04:37.457Z,163
2022-08-05T06:05:53.700Z,163
2022-08-05T06:07:09.943Z,163
2022-08-05T06:08:26.164Z,168
2022-08-05T06:09:42.423Z,168
2022-08-05T06:10:58.656Z,174
2022-08-05T06:12:14.895Z,174
2022-08-05T06:13:30.153Z,180
2022-08-05T06:14:46.395Z,180
2022-08-05T06:16:02.623Z,185
2022-08-05T06:17:18.880Z,185
2022-08-05T06:18:35.103Z,180
2022-08-05T06:19:51.346Z,191
2022-08-05T06:21:07.594Z,191
2022-08-05T06:22:23.837Z,208
2022-08-05T06:23:40.062Z,219
2022-08-05T06:24:56.313Z,230
2022-08-05T06:26:12.560Z,230
2022-08-05T06:27:28.800Z,225
2022-08-05T06:28:45.030Z,174
2022-08-05T06:30:00.283Z,163
2022-08-05T06:31:16.520Z,202
2022-08-05T06:32:32.770Z,208
2022-08-05T06:33:49.011Z,174
2022-08-05T06:35:05.244Z,208
2022-08-05T06:36:21.483Z,196
2022-08-05T06:37:37.730Z,208
2022-08-05T06:38:53.969Z,225
2022-08-05T06:40:10.201Z,258
2022-08-05T06:41:26.440Z,225
2022-08-05T06:43:58.917Z,208
2022-08-05T06:45:15.170Z,185
2022-08-05T06:46:30.433Z,180
2022-08-05T06:47:46.674Z,168
2022-08-05T06:49:02.900Z,157
2022-08-05T06:50:19.140Z,146
2022-08-05T06:51:35.383Z,135
2022-08-05T06:52:51.632Z,112
2022-08-05T06:54:07.858Z,101
2022-08-05T06:55:24.105Z,90
2022-08-05T06:56:40.335Z,84
2022-08-05T06:57:56.589Z,78
2022-08-05T06:59:12.819Z,73
2022-08-05T07:00:29.067Z,67
2022-08-05T07:01:45.315Z,67
2022-08-05T07:03:00.551Z,61
2022-08-05T07:04:16.807Z,61
2022-08-05T07:05:33.039Z,61
2022-08-05T07:06:49.282Z,56
2022-08-05T07:08:05.528Z,56
2022-08-05T07:09:21.758Z,61
2022-08-05T07:10:38.003Z,67
2022-08-05T07:11:54.235Z,73
2022-08-05T07:13:10.475Z,67
2022-08-05T07:14:26.733Z,73
2022-08-05T07:15:42.956Z,84
2022-08-05T07:16:59.206Z,84
2022-08-05T07:18:15.450Z,95
2022-08-05T07:19:31.673Z,95
2022-08-05T07:20:46.947Z,112
2022-08-05T07:23:19.424Z,146
2022-08-05T07:24:35.665Z,135
2022-08-05T07:25:51.896Z,135
2022-08-05T07:27:08.139Z,146
2022-08-05T07:28:24.387Z,157
2022-08-05T07:29:40.626Z,168
2022-08-05T07:30:56.865Z,180
2022-08-05T07:32:13.110Z,180
2022-08-05T07:33:29.344Z,185
2022-08-05T07:34:45.571Z,202
2022-08-05T07:36:01.827Z,213
2022-08-05T07:37:17.080Z,225
2022-08-05T07:38:33.316Z,241
2022-08-05T07:39:49.565Z,258
2022-08-05T07:41:05.797Z,281
2022-08-05T07:42:22.040Z,298
2022-08-05T07:43:38.284Z,315
2022-08-05T07:44:54.521Z,303
2022-08-05T07:47:27.000Z,270
2022-08-05T07:48:43.236Z,264
2022-08-05T07:49:59.483Z,270
2022-08-05T07:51:15.712Z,253
2022-08-05T07:52:31.952Z,247
2022-08-05T07:53:47.218Z,225
2022-08-05T07:55:03.452Z,208
2022-08-05T07:56:19.701Z,196
2022-08-05T07:57:35.926Z,196
2022-08-05T07:58:52.170Z,196
2022-08-05T08:00:08.417Z,202
2022-08-05T08:01:24.664Z,202
2022-08-05T08:02:40.888Z,213
2022-08-05T08:03:57.131Z,225
2022-08-05T08:05:13.386Z,247
2022-08-05T08:06:29.606Z,264
2022-08-05T08:07:45.848Z,298
2022-08-05T08:09:02.088Z,371
2022-08-05T08:10:17.349Z,388
2022-08-05T08:11:33.583Z,382
2022-08-05T08:12:49.828Z,388
2022-08-05T08:14:06.079Z,388
2022-08-05T08:15:22.313Z,360
2022-08-05T08:16:38.557Z,382
2022-08-05T08:17:54.803Z,337
2022-08-05T08:19:11.033Z,337
2022-08-05T08:20:27.272Z,393
2022-08-05T08:21:43.510Z,421
2022-08-05T08:22:59.754Z,421
2022-08-05T08:24:15.997Z,416
2022-08-05T08:25:32.242Z,376
2022-08-05T08:26:47.489Z,365
2022-08-05T08:28:03.735Z,376
2022-08-05T08:29:19.973Z,365
2022-08-05T08:30:36.213Z,354
2022-08-05T08:31:52.454Z,354
2022-08-05T08:33:08.696Z,348
2022-08-05T08:34:24.929Z,331
2022-08-05T08:35:41.170Z,320
2022-08-05T08:36:57.420Z,309
2022-08-05T08:38:13.659Z,298
2022-08-05T08:39:29.917Z,292
2022-08-05T08:40:46.153Z,281
2022-08-05T08:42:02.370Z,258
2022-08-05T08:43:17.636Z,241
2022-08-05T08:44:33.869Z,230
2022-08-05T08:45:50.121Z,219
2022-08-05T08:47:06.368Z,208
2022-08-05T08:48:22.582Z,202
2022-08-05T08:49:37.857Z,196
2022-08-05T08:50:54.095Z,202
2022-08-05T08:52:10.341Z,196
2022-08-05T08:53:26.582Z,219
2022-08-05T08:54:42.811Z,275
2022-08-05T08:55:59.058Z,298
2022-08-05T08:57:15.301Z,320
2022-08-05T08:58:31.536Z,360
2022-08-05T08:59:47.761Z,360
2022-08-05T09:01:04.002Z,354
2022-08-05T09:02:20.252Z,365
2022-08-05T09:03:36.504Z,388
2022-08-05T09:04:52.721Z,399
2022-08-05T09:06:07.996Z,405
2022-08-05T09:07:24.218Z,405
2022-08-05T09:08:40.481Z,393
2022-08-05T09:09:56.723Z,399
2022-08-05T09:11:12.961Z,405
2022-08-05T09:12:29.212Z,410
2022-08-05T09:13:45.426Z,410
2022-08-05T09:15:01.677Z,410
2022-08-05T09:16:17.917Z,371
2022-08-05T09:17:34.147Z,433
2022-08-05T09:18:50.401Z,433
2022-08-05T09:20:06.637Z,427
2022-08-05T09:21:22.876Z,427
2022-08-05T09:22:38.129Z,416
2022-08-05T09:23:54.373Z,410
2022-08-05T09:25:10.607Z,399
2022-08-05T09:26:26.868Z,382
2022-08-05T09:27:43.096Z,376
2022-08-05T09:28:59.341Z,388
2022-08-05T09:30:15.590Z,376
2022-08-05T09:31:31.826Z,376
2022-08-05T09:32:48.055Z,376
2022-08-05T09:34:04.312Z,388
2022-08-05T09:35:20.527Z,393
2022-08-05T09:36:36.761Z,399
2022-08-05T09:37:53.012Z,348
2022-08-05T09:39:08.256Z,354
2022-08-05T09:40:24.515Z,360
2022-08-05T09:41:40.760Z,371
2022-08-05T09:42:56.976Z,354
2022-08-05T09:44:13.235Z,315
2022-08-05T09:45:29.473Z,303
2022-08-05T09:46:45.703Z,270
2022-08-05T09:48:01.957Z,258
2022-08-05T09:49:18.200Z,253
2022-08-05T09:50:34.420Z,253
2022-08-05T09:51:50.660Z,258
2022-08-05T09:53:06.911Z,264
2022-08-05T09:54:23.147Z,281
2022-08-05T09:55:38.396Z,298
2022-08-05T09:56:54.660Z,315
2022-08-05T09:58:10.884Z,337
2022-08-05T09:59:27.131Z,354
2022-08-05T10:00:43.379Z,371
2022-08-05T10:01:59.602Z,393
2022-08-05T10:03:15.834Z,433
2022-08-05T10:04:32.093Z,450
2022-08-05T10:05:48.324Z,455
2022-08-05T10:07:04.570Z,427
2022-08-05T10:08:20.812Z,376
2022-08-05T10:09:37.055Z,343
2022-08-05T10:10:53.277Z,320
2022-08-05T10:12:08.533Z,286
2022-08-05T10:13:24.772Z,258
2022-08-05T10:14:41.049Z,213
2022-08-05T10:15:57.271Z,185
2022-08-05T10:17:13.498Z,157
2022-08-05T10:18:29.751Z,151
2022-08-05T10:19:45.983Z,157
2022-08-05T10:21:02.214Z,208
2022-08-05T10:22:18.473Z,253
2022-08-05T10:23:34.700Z,253
2022-08-05T10:24:50.957Z,298
2022-08-05T10:26:07.177Z,348
2022-08-05T10:27:23.437Z,360
2022-08-05T10:28:38.703Z,365
2022-08-05T10:29:54.914Z,371
2022-08-05T10:31:11.151Z,376
2022-08-05T10:32:27.393Z,360
2022-08-05T10:33:43.658Z,343
2022-08-05T10:34:59.872Z,393
2022-08-05T10:36:16.137Z,393
2022-08-05T10:37:32.361Z,399
2022-08-05T10:38:48.611Z,376
2022-08-05T10:40:04.852Z,393
2022-08-05T10:41:21.099Z,360
2022-08-05T10:42:37.341Z,365
2022-08-05T10:43:53.561Z,382
2022-08-05T10:45:08.000Z,382
2022-08-05T10:46:25.077Z,371
2022-08-05T10:47:41.301Z,360
2022-08-05T10:48:57.530Z,365
2022-08-05T10:50:13.785Z,382
2022-08-05T10:51:30.028Z,393
2022-08-05T10:52:46.253Z,399
2022-08-05T10:54:02.517Z,399
2022-08-05T10:55:18.741Z,371
2022-08-05T10:56:34.990Z,371
2022-08-05T10:57:51.237Z,388
2022-08-05T10:59:07.479Z,365
2022-08-05T11:00:23.696Z,348
2022-08-05T11:01:38.961Z,354
2022-08-05T11:02:55.220Z,354
2022-08-05T11:04:11.449Z,354
2022-08-05T11:05:27.707Z,337
2022-08-05T11:06:43.934Z,326
2022-08-05T11:08:00.157Z,303
2022-08-05T11:09:16.398Z,286
2022-08-05T11:10:32.654Z,264
2022-08-05T11:11:48.870Z,258
2022-08-05T11:13:05.117Z,258
2022-08-05T11:14:21.362Z,253
2022-08-05T11:15:37.593Z,253
2022-08-05T11:16:53.854Z,270
2022-08-05T11:18:09.119Z,320
2022-08-05T11:19:25.331Z,337
2022-08-05T11:20:41.602Z,326
2022-08-05T11:21:57.838Z,309
2022-08-05T11:23:14.056Z,298
2022-08-05T11:24:30.313Z,286
2022-08-05T11:25:46.531Z,281
2022-08-05T11:27:02.796Z,281
2022-08-05T11:28:19.020Z,275
2022-08-05T11:29:35.267Z,281
2022-08-05T11:30:51.497Z,286
2022-08-05T11:32:07.755Z,286
2022-08-05T11:33:23.991Z,286
2022-08-05T11:34:39.263Z,286
2022-08-05T11:35:55.481Z,292
2022-08-05T11:37:11.743Z,309
2022-08-05T11:38:27.958Z,309
2022-08-05T11:39:44.221Z,315
2022-08-05T11:42:16.671Z,309
2022-08-05T11:43:32.917Z,303
2022-08-05T11:44:49.151Z,292
2022-08-05T11:46:05.406Z,275
2022-08-05T11:47:21.652Z,258
2022-08-05T11:48:37.880Z,247
2022-08-05T11:49:54.150Z,236
2022-08-05T11:51:09.389Z,230
2022-08-05T11:52:25.626Z,230
2022-08-05T11:53:41.861Z,241
2022-08-05T11:54:58.090Z,270
2022-08-05T11:56:14.336Z,298
2022-08-05T11:57:30.575Z,315
2022-08-05T11:58:46.831Z,331
2022-08-05T12:00:03.085Z,343
2022-08-05T12:01:19.298Z,343
2022-08-05T12:02:35.558Z,343
2022-08-05T12:03:51.801Z,320
2022-08-05T12:05:08.020Z,315
2022-08-05T12:06:24.259Z,303
2022-08-05T12:07:39.512Z,298
2022-08-05T12:08:55.763Z,298
2022-08-05T12:10:12.018Z,309
2022-08-05T12:11:28.231Z,315
2022-08-05T12:12:44.479Z,315
2022-08-05T12:14:00.720Z,315
2022-08-05T12:15:16.983Z,303
2022-08-05T12:16:33.214Z,298
2022-08-05T12:17:49.448Z,292
2022-08-05T12:19:05.673Z,292
2022-08-05T12:20:21.932Z,286
2022-08-05T12:21:38.172Z,281
2022-08-05T12:22:54.395Z,281
2022-08-05T12:24:09.663Z,275
2022-08-05T12:25:25.891Z,275
2022-08-05T12:26:42.148Z,281
2022-08-05T12:27:58.382Z,275
2022-08-05T12:29:14.611Z,275
2022-08-05T12:30:30.853Z,270
2022-08-05T12:31:47.092Z,264
2022-08-05T12:33:03.362Z,247
2022-08-05T12:35:35.839Z,236
2022-08-05T12:36:52.057Z,247
2022-08-05T12:38:08.311Z,247
2022-08-05T12:40:40.782Z,241
2022-08-05T12:41:56.037Z,241
2022-08-05T12:43:12.293Z,225
2022-08-05T12:44:28.527Z,213
2022-08-05T12:45:44.751Z,219
2022-08-05T12:47:01.005Z,225
2022-08-05T12:48:17.255Z,236
2022-08-05T12:49:33.483Z,253
2022-08-05T12:50:49.754Z,264
2022-08-05T12:52:05.958Z,270
2022-08-05T12:53:22.205Z,275
2022-08-05T12:54:38.445Z,281
2022-08-05T12:55:54.695Z,281
2022-08-05T12:57:10.926Z,270
2022-08-05T12:58:26.193Z,258
2022-08-05T12:59:42.427Z,258
2022-08-05T13:00:58.663Z,264
2022-08-05T13:02:14.902Z,270
2022-08-05T13:03:31.149Z,275
2022-08-05T13:04:46.400Z,270
2022-08-05T13:06:02.643Z,258
2022-08-05T13:07:18.891Z,258
2022-08-05T13:08:35.119Z,258
2022-08-05T13:09:51.374Z,258
2022-08-05T13:11:07.604Z,236
2022-08-05T13:12:23.839Z,236
2022-08-05T13:13:40.106Z,208
2022-08-05T13:14:56.336Z,196
2022-08-05T13:16:12.591Z,191
2022-08-05T13:17:28.807Z,191
2022-08-05T13:18:45.053Z,196
2022-08-05T13:20:01.277Z,202
2022-08-05T13:21:16.545Z,208
2022-08-05T13:22:32.778Z,202
2022-08-05T13:23:49.030Z,202
2022-08-05T13:25:05.271Z,202
2022-08-05T13:26:21.518Z,202
2022-08-05T13:27:37.755Z,191
2022-08-05T13:28:53.984Z,185
2022-08-05T13:30:10.229Z,174
2022-08-05T13:31:26.457Z,174
2022-08-05T13:32:42.707Z,163
2022-08-05T13:33:58.939Z,163
2022-08-05T13:35:15.195Z,157
2022-08-05T13:36:31.454Z,157
2022-08-05T13:37:46.677Z,157
2022-08-05T13:39:02.931Z,163
2022-08-05T13:40:19.167Z,163
2022-08-05T13:41:35.414Z,163
2022-08-05T13:42:51.641Z,168
2022-08-05T13:44:07.883Z,174
2022-08-05T13:45:24.119Z,174
2022-08-05T13:46:40.371Z,168
2022-08-05T13:47:56.599Z,163
2022-08-05T13:49:12.842Z,168
2022-08-05T13:50:29.082Z,174
2022-08-05T13:51:45.333Z,185
2022-08-05T13:53:01.561Z,191
2022-08-05T13:54:16.842Z,191
2022-08-05T13:55:33.068Z,196
2022-08-05T13:56:49.310Z,196
2022-08-05T13:58:05.550Z,191
2022-08-05T13:59:21.784Z,185
2022-08-05T14:00:38.027Z,185
2022-08-05T14:01:54.261Z,196
2022-08-05T14:03:10.509Z,213
2022-08-05T14:04:26.753Z,185
2022-08-05T14:05:42.988Z,185
2022-08-05T14:06:59.236Z,180
2022-08-05T14:08:15.473Z,191
2022-08-05T14:09:31.716Z,213
2022-08-05T14:10:46.969Z,213
2022-08-05T14:12:03.201Z,208
2022-08-05T14:13:19.455Z,208
2022-08-05T14:14:35.677Z,191
2022-08-05T14:15:51.928Z,196
2022-08-05T14:17:08.161Z,185
2022-08-05T14:18:24.409Z,185
2022-08-05T14:19:40.652Z,191
2022-08-05T14:20:56.878Z,191
2022-08-05T14:22:13.160Z,185
2022-08-05T14:23:29.371Z,174
2022-08-05T14:24:45.604Z,180
2022-08-05T14:26:01.845Z,168
2022-08-05T14:27:17.107Z,157
2022-08-05T14:28:33.352Z,151
2022-08-05T14:29:49.592Z,140
2022-08-05T14:31:05.832Z,135
2022-08-05T14:32:22.066Z,140
2022-08-05T14:33:38.297Z,151
2022-08-05T14:34:54.551Z,151
2022-08-05T14:36:10.779Z,146
2022-08-05T14:37:27.036Z,151
2022-08-05T14:38:43.283Z,163
2022-08-05T14:39:59.511Z,163
2022-08-05T14:41:15.752Z,163
2022-08-05T14:42:31.982Z,157
2022-08-05T14:43:47.241Z,163
2022-08-05T14:45:03.507Z,163
2022-08-05T14:46:19.722Z,151
2022-08-05T14:47:35.962Z,151
2022-08-05T14:48:52.197Z,157
2022-08-05T14:50:08.472Z,151
2022-08-05T14:51:24.686Z,151
2022-08-05T14:52:40.953Z,163
2022-08-05T14:53:57.169Z,157
2022-08-05T14:55:13.400Z,157
2022-08-05T14:56:29.638Z,163
2022-08-05T14:57:45.881Z,123
2022-08-05T14:59:02.135Z,118
2022-08-05T15:00:17.392Z,123
2022-08-05T15:01:33.616Z,157
2022-08-05T15:02:49.859Z,157
2022-08-05T15:04:06.108Z,157
2022-08-05T15:05:22.373Z,129
2022-08-05T15:06:38.579Z,135
2022-08-05T15:07:54.856Z,112
2022-08-05T15:09:11.067Z,112
2022-08-05T15:10:27.313Z,112
2022-08-05T15:11:43.541Z,129
2022-08-05T15:12:59.777Z,118
2022-08-05T15:14:16.028Z,135
2022-08-05T15:15:32.259Z,106
2022-08-05T15:16:47.529Z,123
2022-08-05T15:18:03.759Z,129
2022-08-05T15:19:20.010Z,135
2022-08-05T15:20:36.265Z,135
2022-08-05T15:21:52.491Z,129
2022-08-05T15:23:08.719Z,106
2022-08-05T15:24:24.968Z,106
2022-08-05T15:25:41.199Z,118
2022-08-05T15:26:57.459Z,129
2022-08-05T15:28:13.690Z,129
2022-08-05T15:29:29.915Z,135
2022-08-05T15:30:46.171Z,140
2022-08-05T15:32:02.411Z,140
2022-08-05T15:33:17.652Z,146
2022-08-05T15:34:33.908Z,140
2022-08-05T15:35:50.136Z,140
2022-08-05T15:37:06.408Z,140
2022-08-05T15:38:22.629Z,140
2022-08-05T15:39:38.867Z,135
2022-08-05T15:40:55.094Z,118
2022-08-05T15:42:11.341Z,123
2022-08-05T15:43:27.579Z,106
2022-08-05T15:44:43.824Z,118
2022-08-05T15:46:00.066Z,118
2022-08-05T15:47:16.332Z,123
2022-08-05T15:48:32.548Z,123
2022-08-05T15:49:47.810Z,123
2022-08-05T15:51:04.057Z,123
2022-08-05T15:52:20.291Z,123
2022-08-05T15:53:36.518Z,123
2022-08-05T15:54:52.751Z,123
2022-08-05T15:56:08.991Z,123
2022-08-05T15:57:25.243Z,123
2022-08-05T15:58:41.489Z,123
2022-08-05T15:59:57.712Z,123
2022-08-05T16:01:13.955Z,118
2022-08-05T16:02:30.202Z,118
2022-08-05T16:03:46.451Z,106
2022-08-05T16:05:02.686Z,118
2022-08-05T16:06:17.933Z,112
2022-08-05T16:07:34.175Z,123
2022-08-05T16:08:50.437Z,129
2022-08-05T16:10:06.658Z,123
2022-08-05T16:11:22.902Z,123
2022-08-05T16:12:39.141Z,123
2022-08-05T16:13:55.376Z,112
2022-08-05T16:15:11.630Z,118
2022-08-05T16:16:27.887Z,123
2022-08-05T16:17:44.103Z,118
2022-08-05T16:19:00.348Z,118
2022-08-05T16:20:16.584Z,112
2022-08-05T16:21:32.817Z,95
2022-08-05T16:22:48.081Z,90
2022-08-05T16:24:04.339Z,95
2022-08-05T16:25:20.561Z,90
2022-08-05T16:26:36.808Z,84
2022-08-05T16:27:53.043Z,73
2022-08-05T16:29:09.282Z,67
2022-08-05T16:30:25.520Z,61
2022-08-05T16:31:41.763Z,61
2022-08-05T16:32:58.000Z,56
2022-08-05T16:34:14.229Z,50
2022-08-05T16:35:30.484Z,56
2022-08-05T16:36:46.715Z,67
2022-08-05T16:38:02.950Z,73
2022-08-05T16:39:18.223Z,73
2022-08-05T16:40:34.485Z,67
2022-08-05T16:41:50.722Z,56
2022-08-05T16:43:06.927Z,56
2022-08-05T16:44:23.178Z,50
2022-08-05T16:45:39.412Z,50
2022-08-05T16:46:55.662Z,56
2022-08-05T16:48:11.888Z,61
2022-08-05T16:49:28.162Z,56
2022-08-05T16:50:44.384Z,45
2022-08-05T16:52:00.624Z,39
2022-08-05T16:53:16.851Z,33
2022-08-05T16:54:33.088Z,33
2022-08-05T16:55:48.369Z,33
2022-08-05T16:57:04.623Z,39
2022-08-05T16:58:20.833Z,45
2022-08-05T16:59:37.063Z,50
2022-08-05T17:00:53.320Z,50
2022-08-05T17:02:09.568Z,50
2022-08-05T17:03:25.783Z,45
2022-08-05T17:04:42.036Z,39
2022-08-05T17:05:58.263Z,39
2022-08-05T17:07:14.533Z,33
2022-08-05T17:08:30.747Z,33
2022-08-05T17:09:46.990Z,33
2022-08-05T17:11:03.222Z,28
2022-08-05T17:12:18.488Z,28
2022-08-05T17:13:34.736Z,28
2022-08-05T17:14:50.993Z,28
2022-08-05T17:16:07.217Z,33
2022-08-05T17:17:23.456Z,33
2022-08-05T17:18:39.690Z,33
2022-08-05T17:19:54.968Z,33
2022-08-05T17:21:11.181Z,33
2022-08-05T17:22:27.429Z,28
2022-08-05T17:23:43.677Z,28
2022-08-05T17:24:59.919Z,28
2022-08-05T17:26:16.150Z,28
2022-08-05T17:27:32.412Z,33
2022-08-05T17:28:48.623Z,33
2022-08-05T17:30:04.876Z,33
2022-08-05T17:31:21.144Z,33
2022-08-05T17:32:37.357Z,39
2022-08-05T17:33:53.604Z,39
2022-08-05T17:35:09.819Z,39
2022-08-05T17:36:25.076Z,33
2022-08-05T17:37:41.323Z,33
2022-08-05T17:38:57.566Z,33
2022-08-05T17:40:13.830Z,33
2022-08-05T17:41:30.076Z,28
2022-08-05T17:42:46.312Z,28
2022-08-05T17:44:02.516Z,28
2022-08-05T17:45:18.795Z,28
2022-08-05T17:46:35.003Z,28
2022-08-05T17:47:51.253Z,28
2022-08-05T17:49:07.515Z,28
2022-08-05T17:50:23.754Z,28
2022-08-05T17:51:39.973Z,22
2022-08-05T17:52:55.212Z,22
2022-08-05T17:54:11.469Z,22
2022-08-05T17:55:27.697Z,22
2022-08-05T17:56:43.934Z,22
2022-08-05T17:58:00.182Z,22
2022-08-05T17:59:16.431Z,22
2022-08-05T18:00:32.679Z,16
2022-08-05T18:01:48.905Z,16
2022-08-05T18:03:05.138Z,11
2022-08-05T18:04:21.371Z,11
2022-08-05T18:05:37.614Z,11
2022-08-05T18:06:53.852Z,5